Time,TemperatureF,DewpointF,PressureIn,WindDirection,WindDirectionDegrees,WindSpeedMPH,WindSpeedGustMPH,Humidity,HourlyPrecipIn,Conditions,Clouds,dailyrainin,SolarRadiationWatts/m^2,SoftwareType,DateUTC
2013-07-12 00:01:00,61.0,60.0,-100.00,WSW,238,1.0,2.0,98,0.00,,,0.00,0.000000,,2013-07-12 04:01:00,
2013-07-12 00:11:00,61.0,60.0,-100.00,WSW,238,1.0,2.0,98,0.00,,,0.00,0.000000,,2013-07-12 04:11:00,
2013-07-12 00:43:00,60.0,59.0,-100.00,NNW,338,1.0,3.0,98,0.00,,,0.00,0.000000,,2013-07-12 04:43:00,
2013-07-12 00:53:00,60.0,59.0,-100.00,NNW,338,1.0,3.0,98,0.00,,,0.00,0.000000,,2013-07-12 04:53:00,
2013-07-12 01:02:00,60.0,59.0,-100.00,NNW,338,1.0,3.0,98,0.00,,,0.00,0.000000,,2013-07-12 05:02:00,
2013-07-12 01:12:00,60.0,59.0,-100.00,NNW,338,1.0,3.0,98,0.00,,,0.00,0.000000,,2013-07-12 05:12:00,
2013-07-12 01:43:00,59.0,59.0,-100.00,NW,320,2.0,4.0,99,0.00,,,0.00,0.000000,,2013-07-12 05:43:00,
2013-07-12 01:53:00,59.0,59.0,-100.00,NW,320,2.0,4.0,99,0.00,,,0.00,0.000000,,2013-07-12 05:53:00,
2013-07-12 02:01:00,59.0,59.0,-100.00,NW,320,2.0,4.0,99,0.00,,,0.00,0.000000,,2013-07-12 06:01:00,
2013-07-12 02:11:00,59.0,59.0,-100.00,NW,320,2.0,4.0,99,0.00,,,0.00,0.000000,,2013-07-12 06:11:00,
2013-07-12 02:42:00,58.0,58.0,-100.00,NNW,340,1.0,3.0,99,0.00,,,0.00,0.000000,,2013-07-12 06:42:00,
2013-07-12 02:52:00,58.0,58.0,-100.00,NNW,340,1.0,3.0,99,0.00,,,0.00,0.000000,,2013-07-12 06:52:00,
2013-07-12 03:02:00,58.0,58.0,-100.00,NNW,340,1.0,3.0,99,0.00,,,0.00,0.000000,,2013-07-12 07:02:00,
2013-07-12 03:12:00,58.0,58.0,-100.00,NNW,340,1.0,3.0,99,0.00,,,0.00,0.000000,,2013-07-12 07:12:00,
2013-07-12 03:43:00,56.0,56.0,-100.00,North,354,0.0,1.0,99,0.00,,,0.00,0.000000,,2013-07-12 07:43:00,
2013-07-12 03:52:00,56.0,56.0,-100.00,North,354,0.0,1.0,99,0.00,,,0.00,0.000000,,2013-07-12 07:52:00,
2013-07-12 04:02:00,56.0,56.0,-100.00,North,354,0.0,1.0,99,0.00,,,0.00,0.000000,,2013-07-12 08:02:00,
2013-07-12 04:11:00,56.0,56.0,-100.00,North,354,0.0,1.0,99,0.00,,,0.00,0.000000,,2013-07-12 08:11:00,
2013-07-12 04:42:00,56.0,56.0,-100.00,NE,42,1.0,3.0,99,0.00,,,0.00,0.000000,,2013-07-12 08:42:00,
2013-07-12 04:53:00,56.0,56.0,-100.00,NE,42,1.0,3.0,99,0.00,,,0.00,0.000000,,2013-07-12 08:53:00,
2013-07-12 05:02:00,56.0,56.0,-100.00,NE,42,1.0,3.0,99,0.00,,,0.00,0.000000,,2013-07-12 09:02:00,
2013-07-12 05:13:00,56.0,56.0,-100.00,NE,42,1.0,3.0,99,0.00,,,0.00,0.000000,,2013-07-12 09:13:00,
2013-07-12 05:43:00,55.0,55.0,-100.00,SSW,209,0.0,0.0,99,0.00,,,0.00,1.000000,,2013-07-12 09:43:00,
2013-07-12 05:52:00,55.0,55.0,-100.00,SSW,209,0.0,0.0,99,0.00,,,0.00,1.000000,,2013-07-12 09:52:00,
2013-07-12 06:01:00,55.0,55.0,-100.00,SSW,209,0.0,0.0,99,0.00,,,0.00,1.000000,,2013-07-12 10:01:00,
2013-07-12 06:11:00,55.0,55.0,-100.00,SSW,209,0.0,0.0,99,0.00,,,0.00,1.000000,,2013-07-12 10:11:00,
2013-07-12 06:43:00,56.0,56.0,-100.00,WNW,286,0.0,1.0,99,0.00,,,0.00,22.000000,,2013-07-12 10:43:00,
2013-07-12 06:52:00,56.0,56.0,-100.00,WNW,286,0.0,1.0,99,0.00,,,0.00,22.000000,,2013-07-12 10:52:00,
2013-07-12 07:02:00,56.0,56.0,-100.00,WNW,286,0.0,1.0,99,0.00,,,0.00,22.000000,,2013-07-12 11:02:00,
2013-07-12 07:12:00,56.0,56.0,-100.00,WNW,286,0.0,1.0,99,0.00,,,0.00,22.000000,,2013-07-12 11:12:00,
2013-07-12 07:43:00,61.0,60.0,-100.00,SSE,168,0.0,1.0,98,0.00,,,0.00,105.000000,,2013-07-12 11:43:00,
2013-07-12 07:53:00,61.0,60.0,-100.00,SSE,168,0.0,1.0,98,0.00,,,0.00,105.000000,,2013-07-12 11:53:00,
2013-07-12 08:02:00,61.0,60.0,-100.00,SSE,168,0.0,1.0,98,0.00,,,0.00,105.000000,,2013-07-12 12:02:00,
2013-07-12 08:11:00,61.0,60.0,-100.00,SSE,168,0.0,1.0,98,0.00,,,0.00,105.000000,,2013-07-12 12:11:00,
2013-07-12 08:43:00,68.0,63.0,-100.00,North,11,1.0,4.0,83,0.00,,,0.00,287.000000,,2013-07-12 12:43:00,
2013-07-12 08:53:00,68.0,63.0,-100.00,North,11,1.0,4.0,83,0.00,,,0.00,287.000000,,2013-07-12 12:53:00,
2013-07-12 09:01:00,68.0,63.0,-100.00,North,11,1.0,4.0,83,0.00,,,0.00,287.000000,,2013-07-12 13:01:00,
2013-07-12 09:12:00,68.0,63.0,-100.00,North,11,1.0,4.0,83,0.00,,,0.00,287.000000,,2013-07-12 13:12:00,
2013-07-12 09:43:00,73.0,63.0,-100.00,North,1,2.0,5.0,71,0.00,,,-99.99,455.000000,,2013-07-12 13:43:00,
2013-07-12 09:53:00,73.0,63.0,-100.00,North,1,2.0,5.0,71,0.00,,,-99.99,455.000000,,2013-07-12 13:53:00,
2013-07-12 10:02:00,73.0,63.0,-100.00,North,1,2.0,5.0,71,0.00,,,-99.99,455.000000,,2013-07-12 14:02:00,
2013-07-12 10:12:00,73.0,63.0,-100.00,North,1,2.0,5.0,71,0.00,,,-99.99,455.000000,,2013-07-12 14:12:00,
2013-07-12 10:44:00,77.0,64.0,-100.00,South,180,1.0,7.0,65,0.00,,,0.00,620.000000,,2013-07-12 14:44:00,
2013-07-12 10:53:00,77.0,64.0,-100.00,South,180,1.0,7.0,65,0.00,,,0.00,620.000000,,2013-07-12 14:53:00,
2013-07-12 11:02:00,77.0,64.0,-100.00,South,180,1.0,7.0,65,0.00,,,0.00,620.000000,,2013-07-12 15:02:00,
2013-07-12 11:11:00,77.0,64.0,-100.00,South,180,1.0,7.0,65,0.00,,,0.00,620.000000,,2013-07-12 15:11:00,
2013-07-12 11:43:00,78.0,62.0,-100.00,NNW,342,3.0,9.0,59,0.00,,,0.00,589.000000,,2013-07-12 15:43:00,
2013-07-12 11:53:00,78.0,62.0,-100.00,NNW,342,3.0,9.0,59,0.00,,,0.00,589.000000,,2013-07-12 15:53:00,
2013-07-12 12:02:00,78.0,62.0,-100.00,NNW,342,3.0,9.0,59,0.00,,,0.00,589.000000,,2013-07-12 16:02:00,
2013-07-12 12:11:00,78.0,62.0,-100.00,NNW,342,3.0,9.0,59,0.00,,,0.00,589.000000,,2013-07-12 16:11:00,
2013-07-12 12:14:00,79.0,61.0,-100.00,NNE,28,1.0,6.0,55,0.00,,,0.00,552.000000,,2013-07-12 16:14:00,
2013-07-12 12:43:00,79.0,61.0,-100.00,NNE,28,1.0,6.0,55,0.00,,,0.00,552.000000,,2013-07-12 16:43:00,
2013-07-12 12:59:00,79.0,61.0,-100.00,NNE,28,1.0,6.0,55,0.00,,,0.00,552.000000,,2013-07-12 16:59:00,
2013-07-12 13:07:00,79.0,61.0,-100.00,NNE,28,1.0,6.0,55,0.00,,,0.00,552.000000,,2013-07-12 17:07:00,
2013-07-12 13:14:00,82.0,62.0,-100.00,WSW,247,2.0,5.0,51,0.00,,,0.00,597.000000,,2013-07-12 17:14:00,
2013-07-12 13:47:00,82.0,62.0,-100.00,WSW,247,2.0,5.0,51,0.00,,,0.00,597.000000,,2013-07-12 17:47:00,
2013-07-12 13:57:00,82.0,62.0,-100.00,WSW,247,2.0,5.0,51,0.00,,,0.00,597.000000,,2013-07-12 17:57:00,
2013-07-12 14:07:00,82.0,62.0,-100.00,WSW,247,2.0,5.0,51,0.00,,,0.00,597.000000,,2013-07-12 18:07:00,
2013-07-12 14:14:00,83.0,64.0,-100.00,East,95,1.0,9.0,53,0.00,,,0.00,737.000000,,2013-07-12 18:14:00,
2013-07-12 14:52:00,83.0,64.0,-100.00,East,95,1.0,9.0,53,0.00,,,0.00,737.000000,,2013-07-12 18:52:00,
2013-07-12 14:58:00,83.0,64.0,-100.00,East,95,1.0,9.0,53,0.00,,,0.00,737.000000,,2013-07-12 18:58:00,
2013-07-12 15:05:00,83.0,64.0,-100.00,East,95,1.0,9.0,53,0.00,,,0.00,737.000000,,2013-07-12 19:05:00,
2013-07-12 15:14:00,84.0,60.0,-100.00,East,96,1.0,7.0,45,0.00,,,0.00,741.000000,,2013-07-12 19:14:00,
2013-07-12 15:59:00,84.0,60.0,-100.00,East,96,1.0,7.0,45,0.00,,,0.00,741.000000,,2013-07-12 19:59:00,
2013-07-12 16:14:00,82.0,61.0,-100.00,ENE,57,1.0,5.0,50,0.00,,,0.00,564.000000,,2013-07-12 20:14:00,
2013-07-12 16:47:00,82.0,61.0,-100.00,ENE,57,1.0,5.0,50,0.00,,,0.00,564.000000,,2013-07-12 20:47:00,
2013-07-12 16:56:00,82.0,61.0,-100.00,ENE,57,1.0,5.0,50,0.00,,,0.00,564.000000,,2013-07-12 20:56:00,
2013-07-12 17:04:00,82.0,61.0,-100.00,ENE,57,1.0,5.0,50,0.00,,,0.00,564.000000,,2013-07-12 21:04:00,
2013-07-12 17:14:00,77.0,65.0,-100.00,East,85,0.0,8.0,66,0.00,,,0.00,303.000000,,2013-07-12 21:14:00,
2013-07-12 17:49:00,77.0,65.0,-100.00,East,85,0.0,8.0,66,0.00,,,0.00,303.000000,,2013-07-12 21:49:00,
2013-07-12 17:59:00,77.0,65.0,-100.00,East,85,0.0,8.0,66,0.00,,,0.00,303.000000,,2013-07-12 21:59:00,
2013-07-12 18:04:00,77.0,65.0,-100.00,East,85,0.0,8.0,66,0.00,,,0.00,303.000000,,2013-07-12 22:04:00,
2013-07-12 18:14:00,80.0,68.0,-100.00,ENE,61,1.0,5.0,68,0.00,,,0.00,235.000000,,2013-07-12 22:14:00,
2013-07-12 18:47:00,80.0,68.0,-100.00,ENE,61,1.0,5.0,68,0.00,,,0.00,235.000000,,2013-07-12 22:47:00,
2013-07-12 18:56:00,80.0,68.0,-100.00,ENE,61,1.0,5.0,68,0.00,,,0.00,235.000000,,2013-07-12 22:56:00,
2013-07-12 19:06:00,80.0,68.0,-100.00,ENE,61,1.0,5.0,68,0.00,,,0.00,235.000000,,2013-07-12 23:06:00,
2013-07-12 19:14:00,73.0,68.0,-100.00,South,186,1.0,4.0,84,0.00,,,0.00,123.000000,,2013-07-12 23:14:00,
2013-07-12 19:37:00,73.0,68.0,-100.00,South,186,1.0,4.0,84,0.00,,,0.00,123.000000,,2013-07-12 23:37:00,
2013-07-12 19:45:00,73.0,68.0,-100.00,South,186,1.0,4.0,84,0.00,,,0.00,123.000000,,2013-07-12 23:45:00,
2013-07-12 19:58:00,73.0,68.0,-100.00,South,186,1.0,4.0,84,0.00,,,0.00,123.000000,,2013-07-12 23:58:00,
2013-07-12 20:08:00,73.0,68.0,-100.00,South,186,1.0,4.0,84,0.00,,,0.00,123.000000,,2013-07-13 00:08:00,
2013-07-12 21:14:00,66.0,65.0,-100.00,SSW,197,0.0,0.0,96,-99.99,,,0.00,3.000000,,2013-07-13 01:14:00,
2013-07-12 21:50:00,66.0,65.0,-100.00,SSW,197,0.0,0.0,96,-99.99,,,0.00,3.000000,,2013-07-13 01:50:00,
2013-07-12 21:57:00,66.0,65.0,-100.00,SSW,197,0.0,0.0,96,-99.99,,,0.00,3.000000,,2013-07-13 01:57:00,
2013-07-12 22:08:00,66.0,65.0,-100.00,SSW,197,0.0,0.0,96,-99.99,,,0.00,3.000000,,2013-07-13 02:08:00,
2013-07-12 22:48:00,64.0,63.0,-100.00,West,262,1.0,4.0,96,0.00,,,0.00,0.000000,,2013-07-13 02:48:00,
2013-07-12 22:56:00,64.0,63.0,-100.00,West,262,1.0,4.0,96,0.00,,,0.00,0.000000,,2013-07-13 02:56:00,
2013-07-12 23:06:00,64.0,63.0,-100.00,West,262,1.0,4.0,96,0.00,,,0.00,0.000000,,2013-07-13 03:06:00,
2013-07-12 23:13:00,64.0,63.0,-100.00,West,262,1.0,4.0,96,0.00,,,0.00,0.000000,,2013-07-13 03:13:00,
2013-07-12 23:58:00,62.0,61.0,-100.00,NNE,15,1.0,4.0,98,0.00,,,0.00,0.000000,,2013-07-13 03:58:00,